Time;durP1;ratioP1;P1;durP2;ratioP2;P2;SDS_P1;SDS_P2;PMS_P1;PMS_P2;Temp;Humidity;BMP_temperature;BMP_pressure;BME280_temperature;BME280_humidity;BME280_pressure;Samples;Min_cycle;Max_cycle;Signal;HPM_P1;HPM_P2
2023/09/15 00:01:29;;;;;;;3.97;3.30;;;;;;;12.54;87.86;101922.09;5055185;28;20036;-82
2023/09/15 00:03:55;;;;;;;4.00;3.03;;;;;;;12.49;87.91;101923.03;5054345;28;20167;-82
2023/09/15 00:06:20;;;;;;;4.60;3.30;;;;;;;12.50;87.85;101931.69;5054623;28;20109;-82
2023/09/15 00:08:45;;;;;;;5.43;3.57;;;;;;;12.45;88.14;101921.28;5054651;28;20025;-82
2023/09/15 00:11:15;;;;;;;6.33;3.70;;;;;;;12.46;87.94;101919.53;5053788;28;20031;-82
2023/09/15 00:13:41;;;;;;;5.97;3.60;;;;;;;12.43;88.21;101916.97;5053400;28;20029;-82
2023/09/15 00:16:07;;;;;;;4.97;3.67;;;;;;;12.42;88.28;101920.47;5054268;28;20037;-82
2023/09/15 00:18:33;;;;;;;4.73;3.70;;;;;;;12.39;88.11;101916.09;5053823;28;20021;-82
2023/09/15 00:20:58;;;;;;;5.25;3.33;;;;;;;12.28;88.75;101908.38;5054562;28;20501;-82
2023/09/15 00:23:24;;;;;;;4.57;3.30;;;;;;;12.29;88.54;101911.81;5054290;28;20024;-82
2023/09/15 00:25:52;;;;;;;4.13;3.20;;;;;;;12.26;88.47;101906.66;5053338;28;20021;-82
2023/09/15 00:28:17;;;;;;;4.53;3.42;;;;;;;12.26;88.51;101914.47;5054433;28;20092;-82
2023/09/15 00:30:42;;;;;;;4.93;3.47;;;;;;;12.19;88.62;101906.69;5054233;28;20423;-82
2023/09/15 00:33:08;;;;;;;5.23;3.53;;;;;;;12.08;88.88;101890.25;5053216;28;20393;-82
2023/09/15 00:35:33;;;;;;;4.80;3.70;;;;;;;12.18;88.83;101909.31;5054575;28;20098;-82
2023/09/15 00:37:59;;;;;;;5.50;3.70;;;;;;;12.17;88.86;101905.81;5054085;28;20031;-82
2023/09/15 00:40:24;;;;;;;6.37;3.70;;;;;;;12.16;88.79;101901.47;5042900;28;20029;-82
2023/09/15 00:42:51;;;;;;;4.83;3.50;;;;;;;12.15;89.17;101904.97;5033860;28;20064;-81
2023/09/15 00:45:22;;;;;;;4.70;3.50;;;;;;;12.14;89.26;101900.66;5033581;28;20566;-82
2023/09/15 00:47:58;;;;;;;5.07;3.35;;;;;;;12.08;89.21;101898.06;5033708;28;20033;-82
2023/09/15 00:50:28;;;;;;;4.55;3.58;;;;;;;12.05;89.67;101888.53;5033951;28;20025;-81
2023/09/15 00:52:57;;;;;;;4.20;3.10;;;;;;;12.05;89.43;101898.94;5033369;28;20037;-82
2023/09/15 00:55:24;;;;;;;4.32;3.30;;;;;;;12.05;89.52;101896.34;5048136;22;20057;-82
2023/09/15 00:57:51;;;;;;;4.63;3.25;;;;;;;12.04;89.45;101896.38;5054054;28;20021;-82
2023/09/15 01:00:17;;;;;;;4.25;3.10;;;;;;;11.94;89.32;101879.88;5053181;28;20029;-81
2023/09/15 01:02:44;;;;;;;5.20;3.50;;;;;;;12.01;89.54;101901.56;5054106;28;20104;-82
2023/09/15 01:05:16;;;;;;;5.60;3.30;;;;;;;11.97;89.98;101881.59;5053528;28;20044;-82
2023/09/15 01:07:45;;;;;;;5.07;3.30;;;;;;;11.98;89.91;101888.56;5053471;28;20095;-82
2023/09/15 01:10:12;;;;;;;4.70;3.35;;;;;;;11.98;90.02;101888.56;5052785;28;20392;-82
2023/09/15 01:12:37;;;;;;;3.85;3.17;;;;;;;11.97;89.84;101881.59;5053184;28;20027;-82
2023/09/15 01:15:03;;;;;;;5.17;3.40;;;;;;;11.93;89.67;101875.53;5052773;28;20028;-82
2023/09/15 01:17:54;;;;;;;5.37;3.60;;;;;;;11.92;89.99;101878.16;5053797;28;20020;-82
2023/09/15 01:20:40;;;;;;;5.40;3.47;;;;;;;11.92;90.05;101878.16;5044878;28;20037;-82
2023/09/15 01:23:25;;;;;;;;;;;;;;;11.90;90.00;101884.25;5053455;28;20025;-82
2023/09/15 01:26:18;;;;;;;5.85;3.97;;;;;;;11.87;89.99;101873.84;5053700;28;19912;-82
2023/09/15 01:29:05;;;;;;;6.35;3.80;;;;;;;11.85;90.21;101878.19;5048169;28;20060;-82
2023/09/15 01:31:32;;;;;;;5.95;3.92;;;;;;;11.81;90.27;101868.69;5068357;28;20381;-82
2023/09/15 01:33:57;;;;;;;6.03;3.70;;;;;;;11.82;89.95;101882.53;5073092;28;20032;-82
2023/09/15 01:36:23;;;;;;;5.60;3.80;;;;;;;11.79;89.91;101872.13;5072327;28;20428;-82
2023/09/15 01:38:48;;;;;;;5.23;3.67;;;;;;;11.78;90.22;101865.19;5072219;28;20108;-82
2023/09/15 01:41:13;;;;;;;7.13;3.90;;;;;;;11.76;90.29;101864.38;5072814;28;20050;-82
2023/09/15 01:43:39;;;;;;;5.67;3.77;;;;;;;11.73;90.28;101863.50;5072226;28;20017;-82
2023/09/15 01:46:04;;;;;;;5.47;3.70;;;;;;;11.68;90.67;101860.03;5072878;28;20093;-82
2023/09/15 01:48:30;;;;;;;5.23;3.50;;;;;;;11.66;90.40;101853.97;5072832;28;20465;-81
2023/09/15 01:50:57;;;;;;;5.47;3.60;;;;;;;11.64;90.51;101855.75;5072301;28;20021;-81
2023/09/15 01:53:23;;;;;;;;;;;;;;;11.62;90.56;101854.88;5072761;28;20029;-82
2023/09/15 01:55:49;;;;;;;5.20;3.35;;;;;;;11.64;90.53;101860.06;5070625;28;20061;-82
2023/09/15 01:58:15;;;;;;;5.22;3.55;;;;;;;11.58;90.68;101845.34;5072461;28;20027;-81
2023/09/15 02:00:40;;;;;;;5.57;3.50;;;;;;;11.64;91.00;101852.25;5073115;28;20017;-82
2023/09/15 02:03:06;;;;;;;4.97;3.37;;;;;;;11.62;90.86;101862.66;5071495;28;20028;-82
2023/09/15 02:05:32;;;;;;;5.53;3.57;;;;;;;11.57;91.25;101852.28;5073045;28;20024;-82
2023/09/15 02:07:57;;;;;;;3.93;3.00;;;;;;;11.56;90.72;101854.88;5071617;28;20032;-82
2023/09/15 02:10:23;;;;;;;4.77;3.47;;;;;;;11.56;90.92;101862.66;5071914;28;20028;-81
2023/09/15 02:12:49;;;;;;;6.18;3.80;;;;;;;11.52;90.77;101854.03;5072732;28;20032;-82
2023/09/15 02:15:14;;;;;;;4.73;3.50;;;;;;;11.48;91.14;101852.31;5072051;28;20024;-82
2023/09/15 02:17:40;;;;;;;6.43;3.60;;;;;;;11.51;91.09;101862.69;5072012;28;20025;-82
2023/09/15 02:20:18;;;;;;;5.43;3.80;;;;;;;11.47;90.94;101855.78;5072448;28;20032;-81
2023/09/15 02:22:44;;;;;;;4.35;3.33;;;;;;;11.44;91.14;101859.25;5072467;28;20025;-81
2023/09/15 02:25:10;;;;;;;5.97;3.70;;;;;;;11.42;91.18;101858.41;5071288;28;20035;-82
2023/09/15 02:27:39;;;;;;;4.97;3.47;;;;;;;11.35;91.43;101848.03;5072714;28;20021;-82
2023/09/15 02:30:05;;;;;;;4.85;3.28;;;;;;;11.38;91.91;101853.19;5072380;28;20032;-82
2023/09/15 02:32:31;;;;;;;5.63;3.75;;;;;;;11.36;91.37;101852.34;5072029;28;20032;-82
2023/09/15 02:34:56;;;;;;;3.77;3.00;;;;;;;11.29;91.69;101841.09;5071550;28;20027;-82
2023/09/15 02:37:21;;;;;;;5.50;3.60;;;;;;;11.22;91.49;101835.06;5071942;28;20056;-82
2023/09/15 02:39:47;;;;;;;6.00;3.40;;;;;;;11.25;91.50;101840.25;5072102;28;20070;-82
2023/09/15 02:42:12;;;;;;;5.40;3.67;;;;;;;11.28;91.80;101844.56;5071879;28;20090;-82
2023/09/15 02:44:38;;;;;;;4.17;3.27;;;;;;;11.23;92.17;101830.69;5072700;28;20066;-82
2023/09/15 02:47:03;;;;;;;4.43;3.03;;;;;;;11.23;91.98;101833.31;5071355;28;20029;-81
2023/09/15 02:49:28;;;;;;;4.27;3.00;;;;;;;11.27;92.05;101840.22;5072426;28;20021;-82
2023/09/15 02:51:55;;;;;;;5.47;3.30;;;;;;;11.24;92.26;101841.13;5072369;28;20420;-82
2023/09/15 02:54:20;;;;;;;5.53;3.40;;;;;;;11.24;91.82;101835.91;5071604;28;20469;-81
2023/09/15 02:56:45;;;;;;;4.47;3.20;;;;;;;11.21;92.13;101829.84;5070394;28;20047;-81
2023/09/15 02:59:11;;;;;;;4.30;3.23;;;;;;;11.23;92.12;101838.50;5070935;28;20385;-81
2023/09/15 03:01:36;;;;;;;4.37;3.10;;;;;;;11.22;92.10;101840.25;5072053;28;20499;-82
2023/09/15 03:04:03;;;;;;;4.70;3.20;;;;;;;11.18;92.27;101841.09;5072129;28;20480;-81
2023/09/15 03:06:28;;;;;;;3.65;2.78;;;;;;;11.18;93.31;101838.50;5071219;28;20032;-82
2023/09/15 03:08:54;;;;;;;4.00;3.00;;;;;;;11.12;93.21;101829.00;5071942;28;20064;-82
2023/09/15 03:11:19;;;;;;;3.93;2.90;;;;;;;11.11;92.99;101826.41;5071821;28;20017;-82
2023/09/15 03:13:45;;;;;;;4.37;3.10;;;;;;;11.10;92.59;101833.31;5071424;28;20051;-81
2023/09/15 03:16:11;;;;;;;4.70;3.27;;;;;;;11.11;92.74;101836.81;5071990;28;20021;-82
2023/09/15 03:18:37;;;;;;;4.88;3.25;;;;;;;11.10;92.56;101835.91;5071895;28;20032;-82
2023/09/15 03:21:03;;;;;;;4.07;3.13;;;;;;;11.04;92.69;101825.56;5071312;28;20024;-81
2023/09/15 03:23:29;;;;;;;4.93;3.40;;;;;;;11.02;92.17;101835.06;5072270;28;20032;-82
2023/09/15 03:26:01;;;;;;;4.17;3.23;;;;;;;11.01;92.42;101827.28;5072078;28;20381;-82
2023/09/15 03:28:27;;;;;;;4.80;3.20;;;;;;;10.93;92.46;101816.91;5057987;28;20028;-82
2023/09/15 03:30:52;;;;;;;5.10;3.40;;;;;;;10.95;92.54;101821.22;5051690;28;20036;-82
2023/09/15 03:33:17;;;;;;;5.90;3.37;;;;;;;10.94;92.70;101816.03;5052725;28;20116;-81
2023/09/15 03:35:43;;;;;;;4.27;3.17;;;;;;;10.92;92.73;101813.44;5054606;28;20056;-81
2023/09/15 03:38:09;;;;;;;4.77;3.47;;;;;;;10.93;92.53;101819.50;5055080;28;20469;-81
2023/09/15 03:40:34;;;;;;;4.83;3.20;;;;;;;10.87;92.74;101810.00;5055930;28;20049;-81
2023/09/15 03:42:59;;;;;;;4.63;3.30;;;;;;;10.82;92.61;101811.72;5054737;28;20025;-82
2023/09/15 03:45:25;;;;;;;3.67;2.80;;;;;;;10.81;92.59;101815.16;5054983;28;20025;-82
2023/09/15 03:47:50;;;;;;;4.00;2.60;;;;;;;10.80;92.70;101816.06;5055426;28;20029;-82
2023/09/15 03:50:19;;;;;;;3.47;2.70;;;;;;;10.71;93.04;101795.28;5054339;28;20400;-82
2023/09/15 03:52:46;;;;;;;3.67;2.80;;;;;;;10.79;92.84;101811.72;5055510;28;20040;-82
2023/09/15 03:55:11;;;;;;;3.45;2.83;;;;;;;10.74;93.07;101805.66;5054926;28;20421;-81
2023/09/15 03:57:37;;;;;;;4.20;2.90;;;;;;;10.75;92.94;101799.59;5054546;28;20025;-82
2023/09/15 04:00:04;;;;;;;3.50;2.80;;;;;;;10.74;93.13;101800.47;5055181;28;20036;-82
2023/09/15 04:02:30;;;;;;;3.75;2.70;;;;;;;10.79;93.09;101814.34;5054410;28;20025;-81
2023/09/15 04:04:55;;;;;;;3.67;2.70;;;;;;;10.72;93.87;101794.41;5054783;28;20032;-82
2023/09/15 04:07:23;;;;;;;3.63;2.60;;;;;;;10.78;93.44;101802.22;5054825;28;20040;-82
2023/09/15 04:09:49;;;;;;;4.75;3.00;;;;;;;10.78;93.17;101804.81;5054370;28;20066;-81
2023/09/15 04:12:14;;;;;;;5.03;3.07;;;;;;;10.81;93.12;101804.78;5055065;28;20029;-82
2023/09/15 04:14:39;;;;;;;3.57;2.80;;;;;;;10.80;93.08;101808.28;5054952;28;20516;-82
2023/09/15 04:17:05;;;;;;;4.23;3.13;;;;;;;10.73;93.21;101793.53;5053856;28;20033;-81
2023/09/15 04:19:30;;;;;;;4.63;2.83;;;;;;;10.76;93.21;101803.94;5055208;28;20044;-82
2023/09/15 04:21:59;;;;;;;3.87;2.80;;;;;;;10.71;93.30;101792.69;5054967;28;20112;-82
2023/09/15 04:24:25;;;;;;;3.50;2.60;;;;;;;10.67;93.19;101789.22;5053851;28;20025;-81
2023/09/15 04:26:50;;;;;;;3.63;2.80;;;;;;;10.70;93.50;101798.72;5054830;28;20461;-82
2023/09/15 04:29:16;;;;;;;4.73;2.90;;;;;;;10.62;93.70;101783.19;5054448;28;20070;-82
2023/09/15 04:31:41;;;;;;;4.60;2.97;;;;;;;10.70;93.29;101794.41;5064768;28;20504;-82
2023/09/15 04:34:06;;;;;;;3.33;2.90;;;;;;;10.68;93.35;101792.69;5073676;28;20029;-82
2023/09/15 04:36:32;;;;;;;3.83;2.87;;;;;;;10.67;93.50;101789.22;5074547;28;20025;-82
2023/09/15 04:38:58;;;;;;;3.23;2.70;;;;;;;10.61;93.47;101787.50;5073707;28;20108;-81
2023/09/15 04:41:23;;;;;;;4.43;2.97;;;;;;;10.62;93.50;101791.81;5073889;28;20029;-82
2023/09/15 04:43:49;;;;;;;3.53;2.70;;;;;;;10.63;93.61;101797.91;5059239;28;20076;-82
2023/09/15 04:46:17;;;;;;;3.47;2.80;;;;;;;10.57;93.62;101782.31;5066750;28;20044;-82
2023/09/15 04:48:42;;;;;;;4.18;2.88;;;;;;;10.60;93.62;101796.16;5054143;28;20037;-81
2023/09/15 04:51:07;;;;;;;4.20;2.90;;;;;;;10.56;93.69;101777.97;5053846;28;20052;-82
2023/09/15 04:53:33;;;;;;;3.20;2.80;;;;;;;10.61;93.70;101797.88;5052585;28;20425;-82
2023/09/15 04:55:58;;;;;;;3.73;2.60;;;;;;;10.57;94.02;101782.31;5053755;28;20045;-81
2023/09/15 04:58:23;;;;;;;4.00;2.70;;;;;;;10.58;93.67;101803.09;5053650;28;20017;-81
2023/09/15 05:00:48;;;;;;;4.93;3.13;;;;;;;10.59;93.72;101803.94;5057152;28;20025;-81
2023/09/15 05:03:14;;;;;;;3.50;2.67;;;;;;;10.56;93.94;101803.94;5073507;28;20025;-81
2023/09/15 05:05:39;;;;;;;3.13;2.70;;;;;;;10.54;93.87;101806.53;5073492;28;20035;-81
2023/09/15 05:08:05;;;;;;;4.33;2.70;;;;;;;10.49;94.04;101798.75;5073235;28;20082;-82
2023/09/15 05:10:30;;;;;;;3.43;2.50;;;;;;;10.52;93.92;101810.84;5073979;28;20090;-82
2023/09/15 05:12:56;;;;;;;2.87;2.47;;;;;;;10.49;94.02;101797.88;5073101;28;20029;-82
2023/09/15 05:15:21;;;;;;;4.13;2.90;;;;;;;10.51;94.01;101803.94;5073318;28;20023;-82
2023/09/15 05:17:46;;;;;;;3.83;2.70;;;;;;;10.54;94.22;101811.72;5071654;28;20051;-82
2023/09/15 05:20:11;;;;;;;3.50;2.73;;;;;;;10.53;93.92;101807.41;5072839;28;20067;-82
2023/09/15 05:22:37;;;;;;;4.00;2.83;;;;;;;10.54;94.08;101814.31;5073413;28;20075;-82
2023/09/15 05:25:04;;;;;;;3.60;2.80;;;;;;;10.52;93.89;101813.47;5073563;28;20470;-82
2023/09/15 05:27:30;;;;;;;3.88;2.75;;;;;;;10.55;94.63;101818.66;5072592;28;20034;-82
2023/09/15 05:29:56;;;;;;;3.47;2.60;;;;;;;10.52;94.26;101802.22;5071492;28;20036;-82
2023/09/15 05:32:21;;;;;;;3.37;2.70;;;;;;;10.54;94.60;101806.53;5073306;28;20078;-82
2023/09/15 05:34:46;;;;;;;4.13;2.70;;;;;;;10.54;94.44;101811.72;5072656;28;20032;-82
2023/09/15 05:37:13;;;;;;;3.43;2.60;;;;;;;10.58;94.38;101816.06;5070345;28;20135;-81
2023/09/15 05:39:38;;;;;;;3.97;2.80;;;;;;;10.60;94.18;101816.91;5073336;28;20025;-82
2023/09/15 05:42:04;;;;;;;2.90;2.47;;;;;;;10.63;94.74;101818.66;5072128;28;20423;-81
2023/09/15 05:44:29;;;;;;;2.53;2.20;;;;;;;10.62;95.09;101815.19;5072767;28;20021;-81
2023/09/15 05:46:55;;;;;;;2.77;2.30;;;;;;;10.61;94.64;101810.84;5072789;28;20028;-82
2023/09/15 05:49:20;;;;;;;2.70;2.37;;;;;;;10.65;94.70;101812.59;5072275;28;20032;-81
2023/09/15 05:51:46;;;;;;;3.00;2.43;;;;;;;10.61;95.12;101799.63;5072963;28;20166;-80
2023/09/15 05:54:11;;;;;;;3.37;2.60;;;;;;;10.65;94.57;101809.13;5072636;28;20469;-80
2023/09/15 05:56:37;;;;;;;2.93;2.40;;;;;;;10.72;94.93;101821.25;5071416;28;20046;-80
2023/09/15 05:59:03;;;;;;;3.20;2.47;;;;;;;10.73;94.75;101819.50;5071389;28;20024;-80
2023/09/15 06:01:29;;;;;;;;;;;;;;;10.79;95.08;101820.38;5073055;28;20050;-80
2023/09/15 06:03:54;;;;;;;3.87;2.60;;;;;;;10.71;95.37;101800.47;5071916;28;19912;-80
2023/09/15 06:06:19;;;;;;;4.67;2.83;;;;;;;10.78;97.57;101818.66;5073022;28;20074;-80
2023/09/15 06:08:47;;;;;;;3.57;2.50;;;;;;;10.73;95.96;101820.41;5072847;28;20484;-80
2023/09/15 06:11:13;;;;;;;3.65;2.70;;;;;;;10.78;95.72;101823.84;5071883;28;20028;-80
2023/09/15 06:13:38;;;;;;;2.60;2.37;;;;;;;10.77;95.42;101811.72;5072854;28;20020;-80
2023/09/15 06:16:04;;;;;;;3.87;2.77;;;;;;;10.87;95.72;101816.91;5072275;28;20346;-80
2023/09/15 06:18:30;;;;;;;3.27;2.47;;;;;;;10.92;95.28;101829.00;5072816;28;20071;-80
2023/09/15 06:20:56;;;;;;;3.13;2.55;;;;;;;10.97;95.24;101823.84;5072862;28;20056;-80
2023/09/15 06:23:25;;;;;;;3.63;2.63;;;;;;;11.01;95.54;101830.75;5071742;28;20025;-80
2023/09/15 06:25:53;;;;;;;3.50;2.40;;;;;;;11.06;96.13;101830.72;5070829;28;20028;-80
2023/09/15 06:28:18;;;;;;;2.97;2.55;;;;;;;11.04;96.71;101816.88;5072448;28;20021;-84
2023/09/15 06:30:44;;;;;;;2.80;2.30;;;;;;;11.06;96.90;101812.53;5072044;28;20035;-81
2023/09/15 06:33:09;;;;;;;2.50;2.30;;;;;;;11.10;96.97;101817.72;5072550;28;20410;-81
2023/09/15 06:35:34;;;;;;;3.93;2.60;;;;;;;11.14;97.36;101818.63;5072560;28;20028;-81
2023/09/15 06:38:01;;;;;;;6.73;3.80;;;;;;;11.19;100.00;101809.06;5071666;28;20025;-82
2023/09/15 06:40:29;;;;;;;8.15;4.95;;;;;;;11.23;99.66;101815.13;5071766;28;20503;-82
2023/09/15 06:42:57;;;;;;;9.85;5.50;;;;;;;11.20;100.00;101795.22;5069658;28;20069;-82
2023/09/15 06:45:28;;;;;;;8.13;4.75;;;;;;;11.31;100.00;101796.91;5071459;28;20112;-82
2023/09/15 06:47:54;;;;;;;6.57;3.60;;;;;;;12.44;100.00;101788.53;5072545;28;20033;-82
2023/09/15 06:50:32;;;;;;;5.43;3.67;;;;;;;15.09;98.08;101792.88;5072050;28;20019;-81
2023/09/15 06:53:00;;;;;;;4.20;3.22;;;;;;;17.85;91.56;101791.41;5064910;28;20470;-83
2023/09/15 06:55:25;;;;;;;3.65;3.00;;;;;;;19.77;79.49;101798.00;5051457;28;20041;-82
2023/09/15 06:57:51;;;;;;;8.80;4.93;;;;;;;21.13;73.45;101808.22;5052399;28;20044;-82
2023/09/15 07:00:26;;;;;;;6.88;3.70;;;;;;;21.70;70.52;101807.44;5051474;28;20036;-82
2023/09/15 07:02:57;;;;;;;5.72;3.47;;;;;;;22.71;65.69;101794.59;5052228;28;20031;-81
2023/09/15 07:05:24;;;;;;;3.60;2.80;;;;;;;23.56;68.15;101802.53;5050837;28;20170;-81
2023/09/15 07:07:50;;;;;;;3.67;2.70;;;;;;;23.52;64.55;101806.28;5052573;28;20091;-81
2023/09/15 07:10:16;;;;;;;3.60;2.70;;;;;;;22.79;64.77;101810.97;5055803;28;20017;-82
2023/09/15 07:12:41;;;;;;;5.87;3.20;;;;;;;21.54;64.27;101807.28;5055486;28;20386;-79
2023/09/15 07:15:06;;;;;;;5.07;3.30;;;;;;;20.29;69.27;101804.75;5055514;28;20025;-82
2023/09/15 07:17:32;;;;;;;4.73;3.10;;;;;;;19.31;71.78;101810.25;5075108;28;20495;-82
2023/09/15 07:19:58;;;;;;;5.32;3.40;;;;;;;18.46;74.60;101800.91;5075193;28;20034;-82
2023/09/15 07:22:24;;;;;;;5.93;3.60;;;;;;;17.80;76.40;101802.03;5073700;28;20107;-82
2023/09/15 07:24:49;;;;;;;5.60;3.20;;;;;;;17.27;76.19;101794.84;5055388;28;20029;-82
2023/09/15 07:27:14;;;;;;;3.80;3.00;;;;;;;16.79;77.84;101794.31;5054386;28;20055;-82
2023/09/15 07:29:40;;;;;;;6.03;3.50;;;;;;;16.20;77.30;101785.34;5055895;28;20017;-81
2023/09/15 07:32:06;;;;;;;8.00;4.53;;;;;;;15.88;81.59;101792.16;5055500;28;20021;-82
2023/09/15 07:34:32;;;;;;;5.53;3.60;;;;;;;15.59;81.71;101779.69;5054858;28;20025;-82
2023/09/15 07:36:59;;;;;;;8.00;4.53;;;;;;;15.33;82.20;101778.47;5055676;28;20563;-81
2023/09/15 07:39:29;;;;;;;5.75;4.10;;;;;;;15.25;84.30;101789.09;5055231;28;20386;-82
2023/09/15 07:41:54;;;;;;;8.30;4.63;;;;;;;15.11;84.58;101788.47;5054759;28;20082;-82
2023/09/15 07:44:20;;;;;;;5.50;3.80;;;;;;;15.01;84.43;101777.34;5055141;28;20462;-81
2023/09/15 07:46:45;;;;;;;6.57;3.70;;;;;;;15.01;85.27;101786.94;5055522;28;20119;-82
2023/09/15 07:49:10;;;;;;;6.93;3.97;;;;;;;15.02;85.14;101786.03;5054412;28;20021;-81
2023/09/15 07:51:36;;;;;;;13.03;6.43;;;;;;;14.83;86.69;101784.63;5054728;28;20116;-82
2023/09/15 07:54:04;;;;;;;9.47;5.60;;;;;;;14.79;86.13;101784.72;5055111;28;20131;-81
2023/09/15 07:56:29;;;;;;;11.57;6.28;;;;;;;14.76;87.38;101783.03;5054337;28;20033;-81
2023/09/15 07:58:54;;;;;;;10.20;6.07;;;;;;;14.72;86.99;101776.13;5055280;28;20381;-82
2023/09/15 08:01:20;;;;;;;7.27;4.80;;;;;;;14.75;86.63;101770.84;5054768;28;20013;-81
2023/09/15 08:03:45;;;;;;;6.03;3.80;;;;;;;14.87;86.68;101777.59;5054382;28;20511;-81
2023/09/15 08:06:11;;;;;;;8.70;4.27;;;;;;;15.00;87.70;101780.84;5054703;28;20053;-81
2023/09/15 08:08:37;;;;;;;7.55;4.20;;;;;;;15.05;87.00;101779.00;5054083;28;20029;-81
2023/09/15 08:11:02;;;;;;;7.87;4.27;;;;;;;15.09;86.98;101782.41;5054950;28;20032;-82
2023/09/15 08:13:27;;;;;;;6.13;3.90;;;;;;;15.14;87.48;101773.59;5054962;28;20024;-82
2023/09/15 08:15:53;;;;;;;4.93;3.37;;;;;;;15.23;86.46;101767.31;5054053;28;20033;-83
2023/09/15 08:18:19;;;;;;;5.90;3.70;;;;;;;15.32;87.53;101765.41;5054338;28;20021;-83
2023/09/15 08:20:44;;;;;;;5.40;3.63;;;;;;;15.46;87.85;101766.00;5060565;28;20149;-81
2023/09/15 08:23:10;;;;;;;7.23;4.60;;;;;;;15.49;87.20;101767.69;5073300;28;20021;-81
2023/09/15 08:25:35;;;;;;;8.90;4.70;;;;;;;15.56;86.97;101770.13;5074397;28;20028;-81
2023/09/15 08:28:02;;;;;;;6.33;3.63;;;;;;;15.66;87.07;101764.69;5074503;28;20021;-81
2023/09/15 08:30:28;;;;;;;5.57;3.72;;;;;;;15.75;86.26;101772.38;5074132;28;20033;-81
2023/09/15 08:32:53;;;;;;;7.40;3.70;;;;;;;15.81;86.23;101764.38;5074755;28;20380;-81
2023/09/15 08:35:19;;;;;;;6.10;3.57;;;;;;;15.92;86.87;101760.69;5074031;28;20090;-81
2023/09/15 08:37:44;;;;;;;4.07;3.30;;;;;;;16.01;86.16;101763.94;5073537;28;20025;-80
2023/09/15 08:40:15;;;;;;;5.10;3.50;;;;;;;16.16;86.59;101772.31;5074459;28;20017;-82
2023/09/15 08:42:40;;;;;;;4.35;3.22;;;;;;;16.29;86.76;101765.88;5074389;28;20021;-82
2023/09/15 08:45:07;;;;;;;4.77;2.83;;;;;;;16.42;86.33;101766.47;5073392;28;20021;-82
2023/09/15 08:47:35;;;;;;;5.03;3.53;;;;;;;16.54;86.20;101765.28;5074210;28;20027;-87
2023/09/15 08:50:03;;;;;;;7.60;4.60;;;;;;;16.67;84.65;101765.81;5073195;28;20059;-87
2023/09/15 08:52:29;;;;;;;7.82;4.55;;;;;;;16.73;85.36;101757.81;5073639;28;20025;-86
2023/09/15 08:54:56;;;;;;;11.75;6.45;;;;;;;16.78;81.75;101766.38;5073914;28;20396;-81
2023/09/15 08:57:22;;;;;;;13.02;6.90;;;;;;;16.74;82.38;101751.66;5073338;28;20116;-89
2023/09/15 08:59:50;;;;;;;10.65;6.05;;;;;;;16.79;82.75;101754.16;5073903;28;20035;-83
2023/09/15 09:02:16;;;;;;;10.40;5.70;;;;;;;16.84;82.49;101752.25;5073662;28;20051;-88
2023/09/15 09:04:42;;;;;;;7.57;4.57;;;;;;;16.95;82.99;101745.00;5073724;28;20104;-86
2023/09/15 09:07:07;;;;;;;6.13;3.80;;;;;;;17.17;83.36;101743.53;5072205;28;20103;-86
2023/09/15 09:09:34;;;;;;;5.28;3.33;;;;;;;17.36;82.50;101749.13;5073883;28;20052;-87
2023/09/15 09:11:59;;;;;;;3.75;2.95;;;;;;;17.52;83.27;101750.38;5076485;28;20035;-90
2023/09/15 09:14:25;;;;;;;4.73;3.23;;;;;;;17.71;82.55;101761.16;5074065;28;20104;-86
2023/09/15 09:16:52;;;;;;;4.83;3.10;;;;;;;17.84;81.80;101753.78;5073523;28;20025;-86
2023/09/15 09:19:18;;;;;;;4.70;3.05;;;;;;;17.99;81.65;101755.09;5072691;28;20020;-87
2023/09/15 09:21:44;;;;;;;5.13;3.10;;;;;;;18.10;81.41;101749.47;5073562;28;20441;-84
2023/09/15 09:24:10;;;;;;;4.95;3.40;;;;;;;18.20;81.05;101750.06;5073371;28;20062;-84
2023/09/15 09:26:36;;;;;;;9.55;5.35;;;;;;;18.25;78.28;101744.63;5055705;28;20043;-83
2023/09/15 09:29:02;;;;;;;10.23;4.90;;;;;;;18.31;76.06;101753.19;5053197;28;20021;-83
2023/09/15 09:31:29;;;;;;;5.73;3.83;;;;;;;18.42;78.81;101747.53;5052237;28;20445;-83
2023/09/15 09:33:57;;;;;;;5.63;3.47;;;;;;;18.53;78.59;101749.81;5052825;28;20091;-87
2023/09/15 09:36:23;;;;;;;4.38;3.00;;;;;;;18.61;79.18;101747.78;5053473;28;20044;-85
2023/09/15 09:38:51;;;;;;;3.40;2.58;;;;;;;18.79;79.86;101741.03;5053306;28;20025;-81
2023/09/15 09:41:18;;;;;;;6.55;3.50;;;;;;;18.91;77.79;101742.38;5052114;28;20163;-81
2023/09/15 09:43:51;;;;;;;4.30;3.20;;;;;;;19.03;78.50;101746.34;5053029;28;20462;-84
2023/09/15 09:46:21;;;;;;;4.53;3.15;;;;;;;19.15;77.74;101742.38;5052673;28;20048;-85
2023/09/15 09:48:50;;;;;;;4.22;3.08;;;;;;;19.25;77.03;101738.50;5052252;28;20116;-84
2023/09/15 09:51:17;;;;;;;3.65;2.60;;;;;;;19.40;77.31;101738.84;5052915;28;20021;-84
2023/09/15 09:53:42;;;;;;;4.18;2.80;;;;;;;19.53;73.63;101732.19;5053251;28;20029;-84
2023/09/15 09:56:07;;;;;;;3.37;2.60;;;;;;;19.65;76.65;101728.19;5051627;28;20037;-85
2023/09/15 09:58:35;;;;;;;4.03;3.00;;;;;;;19.79;76.90;101732.06;5051890;28;20037;-82
2023/09/15 10:01:00;;;;;;;3.78;2.65;;;;;;;19.91;75.58;101731.59;5051753;28;20509;-84
2023/09/15 10:03:26;;;;;;;3.53;2.50;;;;;;;20.02;75.44;101728.56;5056079;28;20033;-88
2023/09/15 10:05:54;;;;;;;3.65;2.70;;;;;;;20.14;74.54;101735.94;5059926;28;20020;-83
2023/09/15 10:08:20;;;;;;;3.35;2.58;;;;;;;20.25;73.55;101734.66;5051328;28;20401;-83
2023/09/15 10:10:48;;;;;;;6.38;3.30;;;;;;;20.38;72.79;101735.81;5052786;28;20021;-84
2023/09/15 10:13:13;;;;;;;4.10;2.90;;;;;;;20.43;74.86;101723.31;5052406;28;20068;-84
2023/09/15 10:15:40;;;;;;;4.65;3.17;;;;;;;20.51;72.00;101718.56;5052197;28;20032;-83
2023/09/15 10:18:07;;;;;;;6.63;3.75;;;;;;;20.59;71.89;101722.66;5052340;28;20021;-83
2023/09/15 10:20:35;;;;;;;8.07;3.75;;;;;;;20.62;72.34;101719.88;5052909;28;20033;-83
2023/09/15 10:23:04;;;;;;;4.80;3.28;;;;;;;20.68;72.03;101706.41;5031843;28;20033;-85
2023/09/15 10:25:48;;;;;;;4.47;3.00;;;;;;;20.79;68.93;101708.59;5032677;28;20025;-84
2023/09/15 10:28:14;;;;;;;3.70;2.60;;;;;;;20.89;72.54;101695.84;5031681;28;20025;-85
2023/09/15 10:30:40;;;;;;;;;;;;;;;21.03;68.20;101701.38;5031847;28;20052;-86
2023/09/15 10:33:07;;;;;;;5.32;3.35;;;;;;;21.02;66.67;101704.94;5032329;28;19983;-85
2023/09/15 10:35:33;;;;;;;10.13;4.47;;;;;;;20.91;66.18;101700.13;5031958;28;20022;-84
2023/09/15 10:38:02;;;;;;;4.00;3.05;;;;;;;20.97;69.67;101701.63;5031900;28;20477;-85
2023/09/15 10:40:29;;;;;;;4.63;2.90;;;;;;;21.10;66.75;101694.03;5032387;28;20030;-84
2023/09/15 10:42:55;;;;;;;;;;;;;;;21.21;66.73;101693.53;5071229;28;20025;-85
2023/09/15 10:45:21;;;;;;;3.28;2.53;;;;;;;21.32;68.89;101685.94;5074506;28;19969;-85
2023/09/15 10:48:00;;;;;;;3.53;2.57;;;;;;;21.52;66.92;101687.66;5067748;28;20112;-85
2023/09/15 10:50:33;;;;;;;4.50;2.80;;;;;;;21.66;64.64;101689.63;5055550;28;20538;-85
2023/09/15 10:53:11;;;;;;;4.60;2.90;;;;;;;21.73;66.76;101684.91;5072180;28;20435;-85
2023/09/15 10:55:37;;;;;;;4.25;2.70;;;;;;;21.81;67.22;101676.63;5075799;28;20127;-86
2023/09/15 10:58:04;;;;;;;3.75;2.67;;;;;;;21.86;60.09;101669.31;5072777;28;20111;-84
2023/09/15 11:00:30;;;;;;;6.82;3.60;;;;;;;21.73;62.58;101658.50;5059723;28;20135;-84
2023/09/15 11:02:56;;;;;;;5.55;2.90;;;;;;;21.78;65.19;101666.19;5071089;28;20020;-84
2023/09/15 11:05:21;;;;;;;4.53;2.87;;;;;;;21.93;64.02;101665.44;5072089;28;20031;-85
2023/09/15 11:07:48;;;;;;;4.22;2.45;;;;;;;22.05;60.48;101670.09;5069296;28;20036;-85
2023/09/15 11:10:13;;;;;;;3.05;2.30;;;;;;;22.16;61.81;101666.06;5074496;28;20016;-84
2023/09/15 11:12:38;;;;;;;5.93;3.27;;;;;;;22.09;57.55;101648.78;5075118;28;20588;-82
2023/09/15 11:15:04;;;;;;;6.93;3.80;;;;;;;21.91;58.28;101659.38;5075107;28;20044;-82
2023/09/15 11:17:31;;;;;;;6.53;3.40;;;;;;;21.91;61.38;101656.72;5075819;28;20511;-82
2023/09/15 11:19:57;;;;;;;;;;;;;;;22.05;62.39;101662.19;5075252;28;20020;-82
2023/09/15 11:22:23;;;;;;;6.85;3.40;;;;;;;22.10;60.39;101650.50;5075742;28;19916;-82
2023/09/15 11:24:51;;;;;;;2.50;2.10;;;;;;;22.22;61.62;101644.56;5075820;28;20440;-83